sensor_id;sensor_type;location;lat;lon;timestamp;temperature;humidity
4433;DHT22;2229;48.708;9.706;2022-10-15T00:01:16;15.20;99.90
4433;DHT22;2229;48.708;9.706;2022-10-15T00:03:44;15.20;99.90
4433;DHT22;2229;48.708;9.706;2022-10-15T00:06:13;15.20;99.90
4433;DHT22;2229;48.708;9.706;2022-10-15T00:08:40;15.20;99.90
4433;DHT22;2229;48.708;9.706;2022-10-15T00:11:10;15.20;99.90
4433;DHT22;2229;48.708;9.706;2022-10-15T00:13:37;15.20;99.90
4433;DHT22;2229;48.708;9.706;2022-10-15T00:16:10;15.20;99.90
4433;DHT22;2229;48.708;9.706;2022-10-15T00:18:38;15.20;99.90
4433;DHT22;2229;48.708;9.706;2022-10-15T00:21:06;15.20;99.90
4433;DHT22;2229;48.708;9.706;2022-10-15T00:23:34;15.20;99.90
4433;DHT22;2229;48.708;9.706;2022-10-15T00:26:03;15.20;99.90
4433;DHT22;2229;48.708;9.706;2022-10-15T00:28:31;15.20;99.90
4433;DHT22;2229;48.708;9.706;2022-10-15T00:31:03;15.20;99.90
4433;DHT22;2229;48.708;9.706;2022-10-15T00:33:31;15.20;99.90
4433;DHT22;2229;48.708;9.706;2022-10-15T00:36:04;15.20;99.90
4433;DHT22;2229;48.708;9.706;2022-10-15T00:38:31;15.20;99.90
4433;DHT22;2229;48.708;9.706;2022-10-15T00:40:58;15.20;99.90
4433;DHT22;2229;48.708;9.706;2022-10-15T00:43:40;15.20;99.90
4433;DHT22;2229;48.708;9.706;2022-10-15T00:46:16;15.20;99.90
4433;DHT22;2229;48.708;9.706;2022-10-15T00:48:49;15.20;99.90
4433;DHT22;2229;48.708;9.706;2022-10-15T00:51:18;15.20;99.90
4433;DHT22;2229;48.708;9.706;2022-10-15T00:53:47;15.20;99.90
4433;DHT22;2229;48.708;9.706;2022-10-15T00:56:19;15.30;99.90
4433;DHT22;2229;48.708;9.706;2022-10-15T00:58:47;15.30;99.90
4433;DHT22;2229;48.708;9.706;2022-10-15T01:01:14;15.30;99.90
4433;DHT22;2229;48.708;9.706;2022-10-15T01:03:42;15.30;99.90
4433;DHT22;2229;48.708;9.706;2022-10-15T01:06:10;15.30;99.90
4433;DHT22;2229;48.708;9.706;2022-10-15T01:08:39;15.30;99.90
4433;DHT22;2229;48.708;9.706;2022-10-15T01:11:16;15.30;99.90
4433;DHT22;2229;48.708;9.706;2022-10-15T01:13:53;15.30;99.90
4433;DHT22;2229;48.708;9.706;2022-10-15T01:16:30;15.30;99.90
4433;DHT22;2229;48.708;9.706;2022-10-15T01:19:03;15.30;99.90
4433;DHT22;2229;48.708;9.706;2022-10-15T01:21:39;15.30;99.90
4433;DHT22;2229;48.708;9.706;2022-10-15T01:24:39;15.30;99.90
4433;DHT22;2229;48.708;9.706;2022-10-15T01:30:17;15.30;99.90
4433;DHT22;2229;48.708;9.706;2022-10-15T01:33:15;15.40;99.90
4433;DHT22;2229;48.708;9.706;2022-10-15T01:35:47;15.40;99.90
4433;DHT22;2229;48.708;9.706;2022-10-15T01:38:24;15.40;99.90
4433;DHT22;2229;48.708;9.706;2022-10-15T01:40:56;15.40;99.90
4433;DHT22;2229;48.708;9.706;2022-10-15T01:43:29;15.40;99.90
4433;DHT22;2229;48.708;9.706;2022-10-15T01:46:33;15.40;99.90
4433;DHT22;2229;48.708;9.706;2022-10-15T01:49:06;15.40;99.90
4433;DHT22;2229;48.708;9.706;2022-10-15T01:51:36;15.40;99.90
4433;DHT22;2229;48.708;9.706;2022-10-15T01:54:06;15.50;99.90
4433;DHT22;2229;48.708;9.706;2022-10-15T01:56:36;15.50;99.90
4433;DHT22;2229;48.708;9.706;2022-10-15T01:59:05;15.50;99.90
4433;DHT22;2229;48.708;9.706;2022-10-15T02:01:34;15.50;99.90
4433;DHT22;2229;48.708;9.706;2022-10-15T02:04:17;15.50;99.90
4433;DHT22;2229;48.708;9.706;2022-10-15T02:06:49;15.50;99.90
4433;DHT22;2229;48.708;9.706;2022-10-15T02:09:24;15.50;99.90
4433;DHT22;2229;48.708;9.706;2022-10-15T02:12:07;15.50;99.90
4433;DHT22;2229;48.708;9.706;2022-10-15T02:14:42;15.50;99.90
4433;DHT22;2229;48.708;9.706;2022-10-15T02:17:14;15.50;99.90
4433;DHT22;2229;48.708;9.706;2022-10-15T02:19:49;15.50;99.90
4433;DHT22;2229;48.708;9.706;2022-10-15T02:22:22;15.50;99.90
4433;DHT22;2229;48.708;9.706;2022-10-15T02:24:54;15.50;99.90
4433;DHT22;2229;48.708;9.706;2022-10-15T02:27:23;15.50;99.90
4433;DHT22;2229;48.708;9.706;2022-10-15T02:29:53;15.50;99.90
4433;DHT22;2229;48.708;9.706;2022-10-15T02:32:23;15.50;99.90
4433;DHT22;2229;48.708;9.706;2022-10-15T02:34:54;15.60;99.90
4433;DHT22;2229;48.708;9.706;2022-10-15T02:37:23;15.50;99.90
4433;DHT22;2229;48.708;9.706;2022-10-15T02:39:51;15.50;99.90
4433;DHT22;2229;48.708;9.706;2022-10-15T02:42:19;15.60;99.90
4433;DHT22;2229;48.708;9.706;2022-10-15T02:44:47;15.60;99.90
4433;DHT22;2229;48.708;9.706;2022-10-15T02:47:14;15.60;99.90
4433;DHT22;2229;48.708;9.706;2022-10-15T02:49:43;15.60;99.90
4433;DHT22;2229;48.708;9.706;2022-10-15T02:52:11;15.60;99.90
4433;DHT22;2229;48.708;9.706;2022-10-15T02:54:38;15.60;99.90
4433;DHT22;2229;48.708;9.706;2022-10-15T02:57:05;15.60;99.90
4433;DHT22;2229;48.708;9.706;2022-10-15T02:59:32;15.60;99.90
4433;DHT22;2229;48.708;9.706;2022-10-15T03:02:00;15.60;99.90
4433;DHT22;2229;48.708;9.706;2022-10-15T03:04:28;15.60;99.90
4433;DHT22;2229;48.708;9.706;2022-10-15T03:06:56;15.60;99.90
4433;DHT22;2229;48.708;9.706;2022-10-15T03:09:24;15.60;99.90
4433;DHT22;2229;48.708;9.706;2022-10-15T03:11:51;15.60;99.90
4433;DHT22;2229;48.708;9.706;2022-10-15T03:14:19;15.60;99.90
4433;DHT22;2229;48.708;9.706;2022-10-15T03:16:46;15.60;99.90
4433;DHT22;2229;48.708;9.706;2022-10-15T03:19:13;15.60;99.90
4433;DHT22;2229;48.708;9.706;2022-10-15T03:21:40;15.60;99.90
4433;DHT22;2229;48.708;9.706;2022-10-15T03:24:13;15.60;99.90
4433;DHT22;2229;48.708;9.706;2022-10-15T03:26:41;15.50;99.90
4433;DHT22;2229;48.708;9.706;2022-10-15T03:29:08;15.50;99.90
4433;DHT22;2229;48.708;9.706;2022-10-15T03:31:42;15.50;99.90
4433;DHT22;2229;48.708;9.706;2022-10-15T03:34:09;15.50;99.90
4433;DHT22;2229;48.708;9.706;2022-10-15T03:36:36;15.50;99.90
4433;DHT22;2229;48.708;9.706;2022-10-15T03:39:07;15.50;99.90
4433;DHT22;2229;48.708;9.706;2022-10-15T03:41:38;15.50;99.90
4433;DHT22;2229;48.708;9.706;2022-10-15T03:44:06;15.50;99.90
4433;DHT22;2229;48.708;9.706;2022-10-15T03:46:36;15.50;99.90
4433;DHT22;2229;48.708;9.706;2022-10-15T03:49:03;15.50;99.90
4433;DHT22;2229;48.708;9.706;2022-10-15T03:51:31;15.50;99.90
4433;DHT22;2229;48.708;9.706;2022-10-15T03:54:04;15.50;99.90
4433;DHT22;2229;48.708;9.706;2022-10-15T03:56:41;15.50;99.90
4433;DHT22;2229;48.708;9.706;2022-10-15T03:59:24;15.50;99.90
4433;DHT22;2229;48.708;9.706;2022-10-15T04:01:57;15.50;99.90
4433;DHT22;2229;48.708;9.706;2022-10-15T04:04:25;15.50;99.90
4433;DHT22;2229;48.708;9.706;2022-10-15T04:06:52;15.50;99.90
4433;DHT22;2229;48.708;9.706;2022-10-15T04:09:20;15.60;99.90
4433;DHT22;2229;48.708;9.706;2022-10-15T04:11:48;15.50;99.90
4433;DHT22;2229;48.708;9.706;2022-10-15T04:14:16;15.50;99.90
4433;DHT22;2229;48.708;9.706;2022-10-15T04:16:45;15.50;99.90
4433;DHT22;2229;48.708;9.706;2022-10-15T04:19:17;15.50;99.90
4433;DHT22;2229;48.708;9.706;2022-10-15T04:21:54;15.50;99.90
4433;DHT22;2229;48.708;9.706;2022-10-15T04:24:44;15.50;99.90
4433;DHT22;2229;48.708;9.706;2022-10-15T04:27:16;15.50;99.90
4433;DHT22;2229;48.708;9.706;2022-10-15T04:29:46;15.60;99.90
4433;DHT22;2229;48.708;9.706;2022-10-15T04:32:14;15.60;99.90
4433;DHT22;2229;48.708;9.706;2022-10-15T04:34:43;15.50;99.90
4433;DHT22;2229;48.708;9.706;2022-10-15T04:37:11;15.50;99.90
4433;DHT22;2229;48.708;9.706;2022-10-15T04:39:39;15.60;99.90
4433;DHT22;2229;48.708;9.706;2022-10-15T04:42:10;15.60;99.90
4433;DHT22;2229;48.708;9.706;2022-10-15T04:44:39;15.60;99.90
4433;DHT22;2229;48.708;9.706;2022-10-15T04:51:31;15.50;99.90
4433;DHT22;2229;48.708;9.706;2022-10-15T05:12:16;15.50;99.90
4433;DHT22;2229;48.708;9.706;2022-10-15T05:14:54;15.50;99.90
4433;DHT22;2229;48.708;9.706;2022-10-15T05:17:28;15.50;99.90
4433;DHT22;2229;48.708;9.706;2022-10-15T05:19:57;15.40;99.90
4433;DHT22;2229;48.708;9.706;2022-10-15T05:22:26;15.50;99.90
4433;DHT22;2229;48.708;9.706;2022-10-15T05:24:58;15.50;99.90
4433;DHT22;2229;48.708;9.706;2022-10-15T05:27:34;15.50;99.90
4433;DHT22;2229;48.708;9.706;2022-10-15T05:30:04;15.50;99.90
4433;DHT22;2229;48.708;9.706;2022-10-15T05:32:40;15.50;99.90
4433;DHT22;2229;48.708;9.706;2022-10-15T05:35:10;15.50;99.90
4433;DHT22;2229;48.708;9.706;2022-10-15T05:38:01;15.50;99.90
4433;DHT22;2229;48.708;9.706;2022-10-15T05:40:29;15.50;99.90
4433;DHT22;2229;48.708;9.706;2022-10-15T05:43:18;15.60;99.90
4433;DHT22;2229;48.708;9.706;2022-10-15T05:45:47;15.60;99.90
4433;DHT22;2229;48.708;9.706;2022-10-15T05:48:15;15.50;99.90
4433;DHT22;2229;48.708;9.706;2022-10-15T05:50:42;15.60;99.90
4433;DHT22;2229;48.708;9.706;2022-10-15T05:53:14;15.50;99.90
4433;DHT22;2229;48.708;9.706;2022-10-15T05:55:46;15.60;99.90
4433;DHT22;2229;48.708;9.706;2022-10-15T05:58:13;15.60;99.90
4433;DHT22;2229;48.708;9.706;2022-10-15T06:00:41;15.60;99.90
4433;DHT22;2229;48.708;9.706;2022-10-15T06:03:11;15.60;99.90
4433;DHT22;2229;48.708;9.706;2022-10-15T06:05:39;15.60;99.90
4433;DHT22;2229;48.708;9.706;2022-10-15T06:08:07;15.60;99.90
4433;DHT22;2229;48.708;9.706;2022-10-15T06:10:35;15.60;99.90
4433;DHT22;2229;48.708;9.706;2022-10-15T06:13:03;15.50;99.90
4433;DHT22;2229;48.708;9.706;2022-10-15T06:15:30;15.50;99.90
4433;DHT22;2229;48.708;9.706;2022-10-15T06:17:58;15.50;99.90
4433;DHT22;2229;48.708;9.706;2022-10-15T06:20:26;15.60;99.90
4433;DHT22;2229;48.708;9.706;2022-10-15T06:22:56;15.60;99.90
4433;DHT22;2229;48.708;9.706;2022-10-15T06:25:24;15.60;99.90
4433;DHT22;2229;48.708;9.706;2022-10-15T06:27:51;15.60;99.90
4433;DHT22;2229;48.708;9.706;2022-10-15T06:30:35;15.60;99.90
4433;DHT22;2229;48.708;9.706;2022-10-15T06:33:23;15.60;99.90
4433;DHT22;2229;48.708;9.706;2022-10-15T06:35:50;15.60;99.90
4433;DHT22;2229;48.708;9.706;2022-10-15T06:38:17;15.60;99.90
4433;DHT22;2229;48.708;9.706;2022-10-15T06:40:44;15.70;99.90
4433;DHT22;2229;48.708;9.706;2022-10-15T06:43:11;15.60;99.90
4433;DHT22;2229;48.708;9.706;2022-10-15T06:45:39;15.60;99.90
4433;DHT22;2229;48.708;9.706;2022-10-15T06:48:15;15.60;99.90
4433;DHT22;2229;48.708;9.706;2022-10-15T06:50:44;15.60;99.90
4433;DHT22;2229;48.708;9.706;2022-10-15T06:53:11;15.60;99.90
4433;DHT22;2229;48.708;9.706;2022-10-15T06:55:38;15.60;99.90
4433;DHT22;2229;48.708;9.706;2022-10-15T06:58:05;15.60;99.90
4433;DHT22;2229;48.708;9.706;2022-10-15T07:00:32;15.70;99.90
4433;DHT22;2229;48.708;9.706;2022-10-15T07:03:02;15.60;99.90
4433;DHT22;2229;48.708;9.706;2022-10-15T07:05:33;15.70;99.90
4433;DHT22;2229;48.708;9.706;2022-10-15T07:08:02;15.70;99.90
4433;DHT22;2229;48.708;9.706;2022-10-15T07:10:29;15.70;99.90
4433;DHT22;2229;48.708;9.706;2022-10-15T07:12:58;15.80;99.90
4433;DHT22;2229;48.708;9.706;2022-10-15T07:15:29;15.80;99.90
4433;DHT22;2229;48.708;9.706;2022-10-15T07:17:56;15.80;99.90
4433;DHT22;2229;48.708;9.706;2022-10-15T07:20:27;15.80;99.90
4433;DHT22;2229;48.708;9.706;2022-10-15T07:22:59;15.80;99.90
4433;DHT22;2229;48.708;9.706;2022-10-15T07:25:30;15.90;99.90
4433;DHT22;2229;48.708;9.706;2022-10-15T07:27:57;15.90;99.90
4433;DHT22;2229;48.708;9.706;2022-10-15T07:30:25;16.00;99.90
4433;DHT22;2229;48.708;9.706;2022-10-15T07:32:54;16.00;99.90
4433;DHT22;2229;48.708;9.706;2022-10-15T07:35:21;16.10;99.90
4433;DHT22;2229;48.708;9.706;2022-10-15T07:37:51;16.10;99.90
4433;DHT22;2229;48.708;9.706;2022-10-15T07:40:19;16.20;99.90
4433;DHT22;2229;48.708;9.706;2022-10-15T07:42:56;16.20;99.90
4433;DHT22;2229;48.708;9.706;2022-10-15T07:45:32;16.30;99.90
4433;DHT22;2229;48.708;9.706;2022-10-15T07:48:00;16.30;99.90
4433;DHT22;2229;48.708;9.706;2022-10-15T07:50:27;16.40;99.90
4433;DHT22;2229;48.708;9.706;2022-10-15T07:52:59;16.40;99.90
4433;DHT22;2229;48.708;9.706;2022-10-15T07:55:28;16.50;99.90
4433;DHT22;2229;48.708;9.706;2022-10-15T07:58:01;16.50;99.90
4433;DHT22;2229;48.708;9.706;2022-10-15T08:00:44;16.60;99.90
4433;DHT22;2229;48.708;9.706;2022-10-15T08:03:21;16.70;99.90
4433;DHT22;2229;48.708;9.706;2022-10-15T08:05:58;16.80;99.90
4433;DHT22;2229;48.708;9.706;2022-10-15T08:08:33;16.90;99.90
4433;DHT22;2229;48.708;9.706;2022-10-15T08:11:17;17.10;99.90
4433;DHT22;2229;48.708;9.706;2022-10-15T08:14:18;17.20;99.90
4433;DHT22;2229;48.708;9.706;2022-10-15T08:20:16;17.20;99.90
4433;DHT22;2229;48.708;9.706;2022-10-15T08:22:57;17.20;99.90
4433;DHT22;2229;48.708;9.706;2022-10-15T08:25:40;17.10;99.90
4433;DHT22;2229;48.708;9.706;2022-10-15T08:28:34;17.10;99.90
4433;DHT22;2229;48.708;9.706;2022-10-15T08:31:33;17.00;99.90
4433;DHT22;2229;48.708;9.706;2022-10-15T08:34:15;16.90;99.90
4433;DHT22;2229;48.708;9.706;2022-10-15T08:36:55;16.80;99.90
4433;DHT22;2229;48.708;9.706;2022-10-15T08:39:39;16.70;99.90
4433;DHT22;2229;48.708;9.706;2022-10-15T08:42:18;16.70;99.90
4433;DHT22;2229;48.708;9.706;2022-10-15T08:45:37;16.60;99.90
4433;DHT22;2229;48.708;9.706;2022-10-15T08:48:35;16.60;99.90
4433;DHT22;2229;48.708;9.706;2022-10-15T08:51:24;16.60;99.90
4433;DHT22;2229;48.708;9.706;2022-10-15T08:53:59;16.70;99.90
4433;DHT22;2229;48.708;9.706;2022-10-15T08:56:36;16.70;99.90
4433;DHT22;2229;48.708;9.706;2022-10-15T09:00:00;16.70;99.90
4433;DHT22;2229;48.708;9.706;2022-10-15T09:03:08;16.70;99.90
4433;DHT22;2229;48.708;9.706;2022-10-15T09:06:02;16.70;99.90
4433;DHT22;2229;48.708;9.706;2022-10-15T09:12:35;16.80;99.90
4433;DHT22;2229;48.708;9.706;2022-10-15T09:15:11;16.70;99.90
4433;DHT22;2229;48.708;9.706;2022-10-15T09:18:36;16.80;99.90
4433;DHT22;2229;48.708;9.706;2022-10-15T09:24:55;16.90;99.90
4433;DHT22;2229;48.708;9.706;2022-10-15T09:27:55;17.00;99.90
4433;DHT22;2229;48.708;9.706;2022-10-15T09:30:47;17.00;99.90
4433;DHT22;2229;48.708;9.706;2022-10-15T09:33:33;17.10;99.90
4433;DHT22;2229;48.708;9.706;2022-10-15T09:36:26;17.20;99.90
4433;DHT22;2229;48.708;9.706;2022-10-15T09:42:34;17.30;99.90
4433;DHT22;2229;48.708;9.706;2022-10-15T09:45:40;17.50;99.90
4433;DHT22;2229;48.708;9.706;2022-10-15T09:48:23;17.60;99.90
4433;DHT22;2229;48.708;9.706;2022-10-15T09:54:11;17.80;99.90
4433;DHT22;2229;48.708;9.706;2022-10-15T09:56:48;18.40;99.90
4433;DHT22;2229;48.708;9.706;2022-10-15T09:59:32;18.90;99.90
4433;DHT22;2229;48.708;9.706;2022-10-15T10:02:39;19.20;99.90
4433;DHT22;2229;48.708;9.706;2022-10-15T10:05:26;19.30;99.90
4433;DHT22;2229;48.708;9.706;2022-10-15T10:08:07;19.30;99.90
4433;DHT22;2229;48.708;9.706;2022-10-15T10:10:36;19.20;99.90
4433;DHT22;2229;48.708;9.706;2022-10-15T10:13:16;19.00;99.90
4433;DHT22;2229;48.708;9.706;2022-10-15T10:15:46;18.90;99.90
4433;DHT22;2229;48.708;9.706;2022-10-15T10:18:18;18.70;99.90
4433;DHT22;2229;48.708;9.706;2022-10-15T10:20:52;18.70;99.90
4433;DHT22;2229;48.708;9.706;2022-10-15T10:23:21;18.60;99.90
4433;DHT22;2229;48.708;9.706;2022-10-15T10:25:49;18.50;99.90
4433;DHT22;2229;48.708;9.706;2022-10-15T10:28:23;18.60;99.90
4433;DHT22;2229;48.708;9.706;2022-10-15T10:31:00;18.60;99.90
4433;DHT22;2229;48.708;9.706;2022-10-15T10:33:31;18.70;99.90
4433;DHT22;2229;48.708;9.706;2022-10-15T10:35:58;18.70;99.90
4433;DHT22;2229;48.708;9.706;2022-10-15T10:38:32;18.70;99.90
4433;DHT22;2229;48.708;9.706;2022-10-15T10:41:02;18.80;99.90
4433;DHT22;2229;48.708;9.706;2022-10-15T10:43:35;18.80;99.90
4433;DHT22;2229;48.708;9.706;2022-10-15T10:46:04;18.80;99.90
4433;DHT22;2229;48.708;9.706;2022-10-15T10:48:39;18.90;99.90
4433;DHT22;2229;48.708;9.706;2022-10-15T10:51:11;18.90;99.90
4433;DHT22;2229;48.708;9.706;2022-10-15T10:53:49;19.00;99.90
4433;DHT22;2229;48.708;9.706;2022-10-15T10:56:21;19.00;99.90
4433;DHT22;2229;48.708;9.706;2022-10-15T10:58:56;19.20;99.90
4433;DHT22;2229;48.708;9.706;2022-10-15T11:01:54;19.50;99.90
4433;DHT22;2229;48.708;9.706;2022-10-15T11:04:52;19.70;99.90
4433;DHT22;2229;48.708;9.706;2022-10-15T11:07:59;19.70;99.90
4433;DHT22;2229;48.708;9.706;2022-10-15T11:10:45;19.70;99.90
4433;DHT22;2229;48.708;9.706;2022-10-15T11:16:31;19.50;99.90
4433;DHT22;2229;48.708;9.706;2022-10-15T11:19:10;19.50;99.90
4433;DHT22;2229;48.708;9.706;2022-10-15T11:21:50;19.40;99.90
4433;DHT22;2229;48.708;9.706;2022-10-15T11:24:24;19.40;99.90
4433;DHT22;2229;48.708;9.706;2022-10-15T11:27:04;19.30;99.90
4433;DHT22;2229;48.708;9.706;2022-10-15T11:29:48;19.40;99.90
4433;DHT22;2229;48.708;9.706;2022-10-15T11:32:30;19.50;99.90
4433;DHT22;2229;48.708;9.706;2022-10-15T11:35:13;19.60;99.90
4433;DHT22;2229;48.708;9.706;2022-10-15T11:37:47;19.70;99.90
4433;DHT22;2229;48.708;9.706;2022-10-15T11:40:20;19.70;99.90
4433;DHT22;2229;48.708;9.706;2022-10-15T11:42:54;19.60;99.90
4433;DHT22;2229;48.708;9.706;2022-10-15T11:45:50;19.50;99.90
4433;DHT22;2229;48.708;9.706;2022-10-15T11:48:32;19.50;99.90
4433;DHT22;2229;48.708;9.706;2022-10-15T11:51:05;19.40;99.90
4433;DHT22;2229;48.708;9.706;2022-10-15T11:53:51;19.40;99.90
4433;DHT22;2229;48.708;9.706;2022-10-15T11:56:23;19.40;99.90
4433;DHT22;2229;48.708;9.706;2022-10-15T11:58:55;19.30;99.90
4433;DHT22;2229;48.708;9.706;2022-10-15T12:01:27;19.30;99.90
4433;DHT22;2229;48.708;9.706;2022-10-15T12:04:02;19.40;99.90
4433;DHT22;2229;48.708;9.706;2022-10-15T12:06:36;19.40;99.90
4433;DHT22;2229;48.708;9.706;2022-10-15T12:09:06;19.40;99.90
4433;DHT22;2229;48.708;9.706;2022-10-15T12:11:41;19.40;99.90
4433;DHT22;2229;48.708;9.706;2022-10-15T12:14:20;19.30;99.90
4433;DHT22;2229;48.708;9.706;2022-10-15T12:16:57;19.30;99.90
4433;DHT22;2229;48.708;9.706;2022-10-15T12:19:36;19.30;99.90
4433;DHT22;2229;48.708;9.706;2022-10-15T12:22:06;19.30;99.90
4433;DHT22;2229;48.708;9.706;2022-10-15T12:24:53;19.30;99.90
4433;DHT22;2229;48.708;9.706;2022-10-15T12:27:29;19.30;99.90
4433;DHT22;2229;48.708;9.706;2022-10-15T12:30:28;19.30;99.90
4433;DHT22;2229;48.708;9.706;2022-10-15T12:32:59;19.30;99.90
4433;DHT22;2229;48.708;9.706;2022-10-15T12:35:35;19.30;99.90
4433;DHT22;2229;48.708;9.706;2022-10-15T12:38:25;19.30;99.90
4433;DHT22;2229;48.708;9.706;2022-10-15T12:40:59;19.20;99.90
4433;DHT22;2229;48.708;9.706;2022-10-15T12:43:29;19.20;99.90
4433;DHT22;2229;48.708;9.706;2022-10-15T12:45:59;19.10;99.90
4433;DHT22;2229;48.708;9.706;2022-10-15T12:48:33;19.10;99.90
4433;DHT22;2229;48.708;9.706;2022-10-15T12:54:36;19.10;99.90
4433;DHT22;2229;48.708;9.706;2022-10-15T13:00:28;19.10;99.90
4433;DHT22;2229;48.708;9.706;2022-10-15T13:02:57;19.10;99.90
4433;DHT22;2229;48.708;9.706;2022-10-15T13:05:35;19.20;99.90
4433;DHT22;2229;48.708;9.706;2022-10-15T13:08:12;19.20;99.90
4433;DHT22;2229;48.708;9.706;2022-10-15T13:10:46;19.10;99.90
4433;DHT22;2229;48.708;9.706;2022-10-15T13:13:18;19.10;99.90
4433;DHT22;2229;48.708;9.706;2022-10-15T13:15:56;19.00;99.90
4433;DHT22;2229;48.708;9.706;2022-10-15T13:18:24;19.00;99.90
4433;DHT22;2229;48.708;9.706;2022-10-15T13:20:52;19.00;99.90
4433;DHT22;2229;48.708;9.706;2022-10-15T13:23:23;18.90;99.90
4433;DHT22;2229;48.708;9.706;2022-10-15T13:26:10;18.90;99.90
4433;DHT22;2229;48.708;9.706;2022-10-15T13:28:41;18.90;99.90
4433;DHT22;2229;48.708;9.706;2022-10-15T13:31:15;18.90;99.90
4433;DHT22;2229;48.708;9.706;2022-10-15T13:33:47;18.90;99.90
4433;DHT22;2229;48.708;9.706;2022-10-15T13:36:19;18.80;99.90
4433;DHT22;2229;48.708;9.706;2022-10-15T13:38:53;18.70;99.90
4433;DHT22;2229;48.708;9.706;2022-10-15T13:41:30;18.70;99.90
4433;DHT22;2229;48.708;9.706;2022-10-15T13:43:59;18.70;99.90
4433;DHT22;2229;48.708;9.706;2022-10-15T13:46:30;18.60;99.90
4433;DHT22;2229;48.708;9.706;2022-10-15T13:48:58;18.50;99.90
4433;DHT22;2229;48.708;9.706;2022-10-15T13:51:31;18.50;99.90
4433;DHT22;2229;48.708;9.706;2022-10-15T13:54:00;18.50;99.90
4433;DHT22;2229;48.708;9.706;2022-10-15T13:56:30;18.50;99.90
4433;DHT22;2229;48.708;9.706;2022-10-15T13:58:59;18.50;99.90
4433;DHT22;2229;48.708;9.706;2022-10-15T14:01:29;18.50;99.90
4433;DHT22;2229;48.708;9.706;2022-10-15T14:03:58;18.50;99.90
4433;DHT22;2229;48.708;9.706;2022-10-15T14:06:27;18.50;99.90
4433;DHT22;2229;48.708;9.706;2022-10-15T14:08:56;18.50;99.90
4433;DHT22;2229;48.708;9.706;2022-10-15T14:11:24;18.50;99.90
4433;DHT22;2229;48.708;9.706;2022-10-15T14:13:54;18.50;99.90
4433;DHT22;2229;48.708;9.706;2022-10-15T14:16:26;18.50;99.90
4433;DHT22;2229;48.708;9.706;2022-10-15T14:18:55;18.60;99.90
4433;DHT22;2229;48.708;9.706;2022-10-15T14:21:24;18.60;99.90
4433;DHT22;2229;48.708;9.706;2022-10-15T14:24:02;18.60;99.90
4433;DHT22;2229;48.708;9.706;2022-10-15T14:26:30;18.60;99.90
4433;DHT22;2229;48.708;9.706;2022-10-15T14:29:00;18.50;99.90
4433;DHT22;2229;48.708;9.706;2022-10-15T14:31:31;18.50;99.90
4433;DHT22;2229;48.708;9.706;2022-10-15T14:33:59;18.40;99.90
4433;DHT22;2229;48.708;9.706;2022-10-15T14:36:28;18.30;99.90
4433;DHT22;2229;48.708;9.706;2022-10-15T14:39:20;18.30;99.90
4433;DHT22;2229;48.708;9.706;2022-10-15T14:41:55;18.20;99.90
4433;DHT22;2229;48.708;9.706;2022-10-15T14:44:23;18.10;99.90
4433;DHT22;2229;48.708;9.706;2022-10-15T14:46:57;18.10;99.90
4433;DHT22;2229;48.708;9.706;2022-10-15T14:49:27;18.10;99.90
4433;DHT22;2229;48.708;9.706;2022-10-15T14:51:58;18.10;99.90
4433;DHT22;2229;48.708;9.706;2022-10-15T14:54:32;18.00;99.90
4433;DHT22;2229;48.708;9.706;2022-10-15T14:57:01;18.00;99.90
4433;DHT22;2229;48.708;9.706;2022-10-15T14:59:34;18.00;99.90
4433;DHT22;2229;48.708;9.706;2022-10-15T15:02:03;18.00;99.90
4433;DHT22;2229;48.708;9.706;2022-10-15T15:04:37;18.00;99.90
4433;DHT22;2229;48.708;9.706;2022-10-15T15:07:16;18.00;99.90
4433;DHT22;2229;48.708;9.706;2022-10-15T15:09:46;18.00;99.90
4433;DHT22;2229;48.708;9.706;2022-10-15T15:12:17;18.00;99.90
4433;DHT22;2229;48.708;9.706;2022-10-15T15:14:46;18.00;99.90
4433;DHT22;2229;48.708;9.706;2022-10-15T15:17:17;18.10;99.90
4433;DHT22;2229;48.708;9.706;2022-10-15T15:19:47;18.10;99.90
4433;DHT22;2229;48.708;9.706;2022-10-15T15:22:16;18.10;99.90
4433;DHT22;2229;48.708;9.706;2022-10-15T15:24:44;18.10;99.90
4433;DHT22;2229;48.708;9.706;2022-10-15T15:27:20;18.10;99.90
4433;DHT22;2229;48.708;9.706;2022-10-15T15:29:50;18.10;99.90
4433;DHT22;2229;48.708;9.706;2022-10-15T15:32:18;18.10;99.90
4433;DHT22;2229;48.708;9.706;2022-10-15T15:34:46;18.10;99.90
4433;DHT22;2229;48.708;9.706;2022-10-15T15:37:14;18.00;99.90
4433;DHT22;2229;48.708;9.706;2022-10-15T15:39:42;18.00;99.90
4433;DHT22;2229;48.708;9.706;2022-10-15T15:42:12;18.00;99.90
4433;DHT22;2229;48.708;9.706;2022-10-15T15:44:39;17.90;99.90
4433;DHT22;2229;48.708;9.706;2022-10-15T15:47:08;17.80;99.90
4433;DHT22;2229;48.708;9.706;2022-10-15T15:49:36;17.80;99.90
4433;DHT22;2229;48.708;9.706;2022-10-15T15:52:03;17.80;99.90
4433;DHT22;2229;48.708;9.706;2022-10-15T15:54:31;17.80;99.90
4433;DHT22;2229;48.708;9.706;2022-10-15T15:56:58;17.70;99.90
4433;DHT22;2229;48.708;9.706;2022-10-15T15:59:25;17.70;99.90
4433;DHT22;2229;48.708;9.706;2022-10-15T16:01:52;17.70;99.90
4433;DHT22;2229;48.708;9.706;2022-10-15T16:04:21;17.70;99.90
4433;DHT22;2229;48.708;9.706;2022-10-15T16:06:48;17.70;99.90
4433;DHT22;2229;48.708;9.706;2022-10-15T16:09:15;17.70;99.90
4433;DHT22;2229;48.708;9.706;2022-10-15T16:11:43;17.70;99.90
4433;DHT22;2229;48.708;9.706;2022-10-15T16:14:10;17.60;99.90
4433;DHT22;2229;48.708;9.706;2022-10-15T16:16:37;17.60;99.90
4433;DHT22;2229;48.708;9.706;2022-10-15T16:19:05;17.70;99.90
4433;DHT22;2229;48.708;9.706;2022-10-15T16:21:33;17.60;99.90
4433;DHT22;2229;48.708;9.706;2022-10-15T16:24:03;17.60;99.90
4433;DHT22;2229;48.708;9.706;2022-10-15T16:26:30;17.60;99.90
4433;DHT22;2229;48.708;9.706;2022-10-15T16:28:57;17.60;99.90
4433;DHT22;2229;48.708;9.706;2022-10-15T16:31:26;17.60;99.90
4433;DHT22;2229;48.708;9.706;2022-10-15T16:33:54;17.60;99.90
4433;DHT22;2229;48.708;9.706;2022-10-15T16:36:21;17.60;99.90
4433;DHT22;2229;48.708;9.706;2022-10-15T16:38:50;17.50;99.90
4433;DHT22;2229;48.708;9.706;2022-10-15T16:41:17;17.50;99.90
4433;DHT22;2229;48.708;9.706;2022-10-15T16:43:45;17.50;99.90
4433;DHT22;2229;48.708;9.706;2022-10-15T16:46:14;17.50;99.90
4433;DHT22;2229;48.708;9.706;2022-10-15T16:48:41;17.40;99.90
4433;DHT22;2229;48.708;9.706;2022-10-15T16:51:10;17.40;99.90
4433;DHT22;2229;48.708;9.706;2022-10-15T16:53:38;17.30;99.90
4433;DHT22;2229;48.708;9.706;2022-10-15T16:56:09;17.30;99.90
4433;DHT22;2229;48.708;9.706;2022-10-15T16:58:37;17.30;99.90
4433;DHT22;2229;48.708;9.706;2022-10-15T17:01:06;17.20;99.90
4433;DHT22;2229;48.708;9.706;2022-10-15T17:03:34;17.20;99.90
4433;DHT22;2229;48.708;9.706;2022-10-15T17:06:04;17.20;99.90
4433;DHT22;2229;48.708;9.706;2022-10-15T17:08:35;17.20;99.90
4433;DHT22;2229;48.708;9.706;2022-10-15T17:11:09;17.10;99.90
4433;DHT22;2229;48.708;9.706;2022-10-15T17:13:37;17.10;99.90
4433;DHT22;2229;48.708;9.706;2022-10-15T17:16:09;17.10;99.90
4433;DHT22;2229;48.708;9.706;2022-10-15T17:18:37;17.10;99.90
4433;DHT22;2229;48.708;9.706;2022-10-15T17:21:09;17.10;99.90
4433;DHT22;2229;48.708;9.706;2022-10-15T17:23:37;17.00;99.90
4433;DHT22;2229;48.708;9.706;2022-10-15T17:26:06;16.90;99.90
4433;DHT22;2229;48.708;9.706;2022-10-15T17:28:35;16.80;99.90
4433;DHT22;2229;48.708;9.706;2022-10-15T17:31:04;16.70;99.90
4433;DHT22;2229;48.708;9.706;2022-10-15T17:33:32;16.70;99.90
4433;DHT22;2229;48.708;9.706;2022-10-15T17:36:02;16.60;99.90